sensor_id;sensor_type;location;lat;lon;timestamp;pressure;altitude;pressure_sealevel;temperature;humidity
59103;BME280;43999;51.660;5.616;2023-02-16T00:01:29;102199.69;;;5.66;100.00
59103;BME280;43999;51.660;5.616;2023-02-16T00:06:52;102201.44;;;5.61;100.00
59103;BME280;43999;51.660;5.616;2023-02-16T00:09:23;102211.00;;;5.60;100.00
59103;BME280;43999;51.660;5.616;2023-02-16T00:11:53;102198.91;;;5.56;100.00
59103;BME280;43999;51.660;5.616;2023-02-16T00:14:41;102193.72;;;5.54;100.00
59103;BME280;43999;51.660;5.616;2023-02-16T00:17:11;102196.38;;;5.48;100.00
59103;BME280;43999;51.660;5.616;2023-02-16T00:19:41;102199.88;;;5.49;100.00
59103;BME280;43999;51.660;5.616;2023-02-16T00:22:10;102197.31;;;5.46;100.00
59103;BME280;43999;51.660;5.616;2023-02-16T00:24:45;102194.72;;;5.44;100.00
59103;BME280;43999;51.660;5.616;2023-02-16T00:27:16;102197.34;;;5.41;100.00
59103;BME280;43999;51.660;5.616;2023-02-16T00:29:46;102194.75;;;5.39;100.00
59103;BME280;43999;51.660;5.616;2023-02-16T00:32:14;102193.91;;;5.37;100.00
59103;BME280;43999;51.660;5.616;2023-02-16T00:34:47;102193.94;;;5.34;100.00
59103;BME280;43999;51.660;5.616;2023-02-16T00:37:24;102188.78;;;5.28;100.00
59103;BME280;43999;51.660;5.616;2023-02-16T00:39:56;102196.59;;;5.28;100.00
59103;BME280;43999;51.660;5.616;2023-02-16T00:42:30;102188.84;;;5.25;100.00
59103;BME280;43999;51.660;5.616;2023-02-16T00:45:05;102194.91;;;5.24;100.00
59103;BME280;43999;51.660;5.616;2023-02-16T00:47:52;102196.69;;;5.20;100.00
59103;BME280;43999;51.660;5.616;2023-02-16T00:50:33;102197.53;;;5.21;100.00
59103;BME280;43999;51.660;5.616;2023-02-16T00:53:01;102198.44;;;5.17;100.00
59103;BME280;43999;51.660;5.616;2023-02-16T00:55:34;102188.06;;;5.17;100.00
59103;BME280;43999;51.660;5.616;2023-02-16T00:58:24;102190.69;;;5.14;100.00
59103;BME280;43999;51.660;5.616;2023-02-16T01:01:07;102187.22;;;5.13;100.00
59103;BME280;43999;51.660;5.616;2023-02-16T01:03:42;102188.13;;;5.09;100.00
59103;BME280;43999;51.660;5.616;2023-02-16T01:06:13;102184.66;;;5.10;100.00
59103;BME280;43999;51.660;5.616;2023-02-16T01:09:15;102188.13;;;5.09;100.00
59103;BME280;43999;51.660;5.616;2023-02-16T01:12:13;102182.94;;;5.08;100.00
59103;BME280;43999;51.660;5.616;2023-02-16T01:14:50;102176.03;;;5.07;100.00
59103;BME280;43999;51.660;5.616;2023-02-16T01:17:30;102169.13;;;5.02;100.00
59103;BME280;43999;51.660;5.616;2023-02-16T01:20:01;102176.94;;;5.02;100.00
59103;BME280;43999;51.660;5.616;2023-02-16T01:22:33;102176.94;;;5.01;100.00
59103;BME280;43999;51.660;5.616;2023-02-16T01:25:04;102177.81;;;4.98;100.00
59103;BME280;43999;51.660;5.616;2023-02-16T01:27:38;102172.66;;;4.97;100.00
59103;BME280;43999;51.660;5.616;2023-02-16T01:30:22;102171.78;;;4.98;100.00
59103;BME280;43999;51.660;5.616;2023-02-16T01:32:54;102167.47;;;4.94;100.00
59103;BME280;43999;51.660;5.616;2023-02-16T01:35:32;102182.22;;;4.93;100.00
59103;BME280;43999;51.660;5.616;2023-02-16T01:38:03;102176.19;;;4.91;100.00
59103;BME280;43999;51.660;5.616;2023-02-16T01:40:36;102169.25;;;4.90;100.00
59103;BME280;43999;51.660;5.616;2023-02-16T01:46:27;102165.84;;;4.85;100.00
59103;BME280;43999;51.660;5.616;2023-02-16T01:49:16;102159.78;;;4.83;100.00
59103;BME280;43999;51.660;5.616;2023-02-16T01:55:17;102142.53;;;4.79;100.00
59103;BME280;43999;51.660;5.616;2023-02-16T01:58:39;102131.25;;;4.77;100.00
59103;BME280;43999;51.660;5.616;2023-02-16T02:02:10;102129.56;;;4.76;100.00
59103;BME280;43999;51.660;5.616;2023-02-16T02:05:08;102137.38;;;4.74;100.00
59103;BME280;43999;51.660;5.616;2023-02-16T02:08:03;102143.47;;;4.69;100.00
59103;BME280;43999;51.660;5.616;2023-02-16T02:11:19;102140.91;;;4.64;100.00
59103;BME280;43999;51.660;5.616;2023-02-16T02:14:05;102142.69;;;4.60;100.00
59103;BME280;43999;51.660;5.616;2023-02-16T02:16:38;102140.97;;;4.55;100.00
59103;BME280;43999;51.660;5.616;2023-02-16T02:19:07;102134.94;;;4.54;100.00
59103;BME280;43999;51.660;5.616;2023-02-16T02:38:01;102129.81;;;4.46;100.00
59103;BME280;43999;51.660;5.616;2023-02-16T02:45:11;102114.22;;;4.46;100.00
59103;BME280;43999;51.660;5.616;2023-02-16T02:47:46;102124.59;;;4.48;100.00
59103;BME280;43999;51.660;5.616;2023-02-16T02:53:44;102116.78;;;4.51;100.00
59103;BME280;43999;51.660;5.616;2023-02-16T03:00:36;102090.84;;;4.51;100.00
59103;BME280;43999;51.660;5.616;2023-02-16T03:03:23;102091.72;;;4.47;100.00
59103;BME280;43999;51.660;5.616;2023-02-16T03:06:08;102096.91;;;4.47;100.00
59103;BME280;43999;51.660;5.616;2023-02-16T03:09:06;102095.19;;;4.43;100.00
59103;BME280;43999;51.660;5.616;2023-02-16T03:11:39;102094.38;;;4.41;100.00
59103;BME280;43999;51.660;5.616;2023-02-16T03:14:47;102096.97;;;4.39;100.00
59103;BME280;43999;51.660;5.616;2023-02-16T03:17:36;102095.25;;;4.35;100.00
59103;BME280;43999;51.660;5.616;2023-02-16T03:20:27;102093.56;;;4.33;100.00
59103;BME280;43999;51.660;5.616;2023-02-16T03:23:16;102093.59;;;4.29;100.00
59103;BME280;43999;51.660;5.616;2023-02-16T03:26:03;102090.16;;;4.23;100.00
59103;BME280;43999;51.660;5.616;2023-02-16T03:28:50;102090.19;;;4.18;100.00
59103;BME280;43999;51.660;5.616;2023-02-16T03:31:41;102084.19;;;4.13;100.00
59103;BME280;43999;51.660;5.616;2023-02-16T03:34:11;102085.97;;;4.09;100.00
59103;BME280;43999;51.660;5.616;2023-02-16T03:36:44;102073.84;;;4.07;100.00
59103;BME280;43999;51.660;5.616;2023-02-16T03:39:17;102072.16;;;4.03;100.00
59103;BME280;43999;51.660;5.616;2023-02-16T03:41:49;102079.09;;;4.01;100.00
59103;BME280;43999;51.660;5.616;2023-02-16T03:44:24;102072.19;;;3.97;100.00
59103;BME280;43999;51.660;5.616;2023-02-16T03:46:54;102077.41;;;3.95;100.00
59103;BME280;43999;51.660;5.616;2023-02-16T03:49:24;102071.38;;;3.90;100.00
59103;BME280;43999;51.660;5.616;2023-02-16T03:51:52;102082.63;;;3.90;100.00
59103;BME280;43999;51.660;5.616;2023-02-16T03:54:28;102077.47;;;3.87;100.00
59103;BME280;43999;51.660;5.616;2023-02-16T03:56:56;102073.13;;;3.86;100.00
59103;BME280;43999;51.660;5.616;2023-02-16T03:59:23;102060.19;;;3.85;100.00
59103;BME280;43999;51.660;5.616;2023-02-16T04:01:57;102065.31;;;3.91;100.00
59103;BME280;43999;51.660;5.616;2023-02-16T04:04:26;102070.50;;;3.91;100.00
59103;BME280;43999;51.660;5.616;2023-02-16T04:06:57;102073.13;;;3.89;100.00
59103;BME280;43999;51.660;5.616;2023-02-16T04:09:29;102077.47;;;3.87;100.00
59103;BME280;43999;51.660;5.616;2023-02-16T04:11:59;102076.56;;;3.90;100.00
59103;BME280;43999;51.660;5.616;2023-02-16T04:14:47;102089.53;;;3.91;100.00
59103;BME280;43999;51.660;5.616;2023-02-16T04:17:16;102092.13;;;3.88;100.00
59103;BME280;43999;51.660;5.616;2023-02-16T04:20:01;102090.41;;;3.90;100.00
59103;BME280;43999;51.660;5.616;2023-02-16T04:22:35;102086.09;;;3.88;100.00
59103;BME280;43999;51.660;5.616;2023-02-16T04:25:03;102081.75;;;3.90;100.00
59103;BME280;43999;51.660;5.616;2023-02-16T04:27:31;102086.06;;;3.91;100.00
59103;BME280;43999;51.660;5.616;2023-02-16T04:30:13;102081.75;;;3.91;100.00
59103;BME280;43999;51.660;5.616;2023-02-16T04:32:55;102083.47;;;3.92;100.00
59103;BME280;43999;51.660;5.616;2023-02-16T04:35:23;102093.00;;;3.90;100.00
59103;BME280;43999;51.660;5.616;2023-02-16T04:37:51;102084.34;;;3.87;100.00
59103;BME280;43999;51.660;5.616;2023-02-16T04:40:21;102093.03;;;3.87;100.00
59103;BME280;43999;51.660;5.616;2023-02-16T04:42:52;102075.75;;;3.85;100.00
59103;BME280;43999;51.660;5.616;2023-02-16T04:45:22;102086.09;;;3.88;100.00
59103;BME280;43999;51.660;5.616;2023-02-16T04:47:52;102091.28;;;3.88;100.00
59103;BME280;43999;51.660;5.616;2023-02-16T04:50:24;102093.88;;;3.88;100.00
59103;BME280;43999;51.660;5.616;2023-02-16T04:52:53;102109.41;;;3.89;100.00
59103;BME280;43999;51.660;5.616;2023-02-16T04:55:29;102098.19;;;3.89;100.00
59103;BME280;43999;51.660;5.616;2023-02-16T04:57:58;102080.03;;;3.92;100.00
59103;BME280;43999;51.660;5.616;2023-02-16T05:00:35;102081.72;;;3.93;100.00
59103;BME280;43999;51.660;5.616;2023-02-16T05:03:05;102072.25;;;3.93;100.00
59103;BME280;43999;51.660;5.616;2023-02-16T05:05:40;102090.34;;;3.98;100.00
59103;BME280;43999;51.660;5.616;2023-02-16T05:08:10;102077.34;;;4.00;100.00
59103;BME280;43999;51.660;5.616;2023-02-16T05:10:47;102073.91;;;3.99;100.00
59103;BME280;43999;51.660;5.616;2023-02-16T05:13:41;102066.97;;;4.03;100.00
59103;BME280;43999;51.660;5.616;2023-02-16T05:16:49;102078.19;;;4.06;100.00
59103;BME280;43999;51.660;5.616;2023-02-16T05:19:21;102080.78;;;4.06;100.00
59103;BME280;43999;51.660;5.616;2023-02-16T05:21:49;102079.88;;;4.09;100.00
59103;BME280;43999;51.660;5.616;2023-02-16T05:24:17;102071.22;;;4.11;100.00
59103;BME280;43999;51.660;5.616;2023-02-16T05:26:45;102068.63;;;4.13;100.00
59103;BME280;43999;51.660;5.616;2023-02-16T05:29:17;102072.06;;;4.13;100.00
59103;BME280;43999;51.660;5.616;2023-02-16T05:31:45;102081.56;;;4.18;100.00
59103;BME280;43999;51.660;5.616;2023-02-16T05:34:15;102081.56;;;4.19;100.00
59103;BME280;43999;51.660;5.616;2023-02-16T05:36:46;102067.72;;;4.19;100.00
59103;BME280;43999;51.660;5.616;2023-02-16T05:39:15;102070.31;;;4.19;100.00
59103;BME280;43999;51.660;5.616;2023-02-16T05:41:48;102078.13;;;4.16;100.00
59103;BME280;43999;51.660;5.616;2023-02-16T05:44:20;102080.69;;;4.20;100.00
59103;BME280;43999;51.660;5.616;2023-02-16T05:46:51;102085.88;;;4.22;100.00
59103;BME280;43999;51.660;5.616;2023-02-16T05:49:19;102076.34;;;4.22;100.00
59103;BME280;43999;51.660;5.616;2023-02-16T05:51:48;102081.50;;;4.25;100.00
59103;BME280;43999;51.660;5.616;2023-02-16T05:54:17;102069.38;;;4.26;100.00
59103;BME280;43999;51.660;5.616;2023-02-16T05:56:50;102068.50;;;4.28;100.00
59103;BME280;43999;51.660;5.616;2023-02-16T05:59:19;102069.34;;;4.30;100.00
59103;BME280;43999;51.660;5.616;2023-02-16T06:01:49;102057.25;;;4.31;100.00
59103;BME280;43999;51.660;5.616;2023-02-16T06:04:22;102062.44;;;4.33;100.00
59103;BME280;43999;51.660;5.616;2023-02-16T06:06:52;102049.44;;;4.36;100.00
59103;BME280;43999;51.660;5.616;2023-02-16T06:09:44;102044.25;;;4.36;100.00
59103;BME280;43999;51.660;5.616;2023-02-16T06:12:21;102048.53;;;4.38;100.00
59103;BME280;43999;51.660;5.616;2023-02-16T06:14:53;102052.00;;;4.40;100.00
59103;BME280;43999;51.660;5.616;2023-02-16T06:17:31;102057.22;;;4.37;100.00
59103;BME280;43999;51.660;5.616;2023-02-16T06:20:00;102056.31;;;4.37;100.00
59103;BME280;43999;51.660;5.616;2023-02-16T06:22:30;102075.38;;;4.36;100.00
59103;BME280;43999;51.660;5.616;2023-02-16T06:25:32;102073.66;;;4.35;100.00
59103;BME280;43999;51.660;5.616;2023-02-16T06:28:03;102061.56;;;4.32;100.00
59103;BME280;43999;51.660;5.616;2023-02-16T06:30:35;102060.66;;;4.36;100.00
59103;BME280;43999;51.660;5.616;2023-02-16T06:33:06;102064.97;;;4.39;100.00
59103;BME280;43999;51.660;5.616;2023-02-16T06:35:36;102066.69;;;4.38;100.00
59103;BME280;43999;51.660;5.616;2023-02-16T06:38:20;102057.19;;;4.40;100.00
59103;BME280;43999;51.660;5.616;2023-02-16T06:40:52;102070.13;;;4.43;100.00
59103;BME280;43999;51.660;5.616;2023-02-16T06:43:21;102077.91;;;4.46;100.00
59103;BME280;43999;51.660;5.616;2023-02-16T06:45:50;102083.97;;;4.44;100.00
59103;BME280;43999;51.660;5.616;2023-02-16T06:48:25;102096.06;;;4.48;100.00
59103;BME280;43999;51.660;5.616;2023-02-16T06:50:57;102089.97;;;4.47;100.00
59103;BME280;43999;51.660;5.616;2023-02-16T06:53:31;102086.53;;;4.47;100.00
59103;BME280;43999;51.660;5.616;2023-02-16T06:55:59;102079.63;;;4.44;100.00
59103;BME280;43999;51.660;5.616;2023-02-16T06:58:29;102074.38;;;4.49;100.00
59103;BME280;43999;51.660;5.616;2023-02-16T07:01:04;102082.16;;;4.52;100.00
59103;BME280;43999;51.660;5.616;2023-02-16T07:03:39;102083.88;;;4.53;100.00
59103;BME280;43999;51.660;5.616;2023-02-16T07:06:06;102086.47;;;4.53;100.00
59103;BME280;43999;51.660;5.616;2023-02-16T07:08:34;102089.91;;;4.57;100.00
59103;BME280;43999;51.660;5.616;2023-02-16T07:11:03;102087.31;;;4.57;100.00
59103;BME280;43999;51.660;5.616;2023-02-16T07:13:34;102093.38;;;4.59;100.00
59103;BME280;43999;51.660;5.616;2023-02-16T07:16:04;102093.38;;;4.59;100.00
59103;BME280;43999;51.660;5.616;2023-02-16T07:18:41;102095.94;;;4.60;100.00
59103;BME280;43999;51.660;5.616;2023-02-16T07:21:15;102096.72;;;4.69;100.00
59103;BME280;43999;51.660;5.616;2023-02-16T07:23:47;102103.66;;;4.70;100.00
59103;BME280;43999;51.660;5.616;2023-02-16T07:26:16;102102.75;;;4.72;100.00
59103;BME280;43999;51.660;5.616;2023-02-16T07:29:25;102091.47;;;4.75;100.00
59103;BME280;43999;51.660;5.616;2023-02-16T07:31:54;102082.78;;;4.79;100.00
59103;BME280;43999;51.660;5.616;2023-02-16T07:34:24;102089.66;;;4.83;100.00
59103;BME280;43999;51.660;5.616;2023-02-16T07:36:59;102093.09;;;4.87;100.00
59103;BME280;43999;51.660;5.616;2023-02-16T07:39:29;102096.53;;;4.89;100.00
59103;BME280;43999;51.660;5.616;2023-02-16T07:41:57;102078.31;;;4.93;100.00
59103;BME280;43999;51.660;5.616;2023-02-16T07:44:25;102084.31;;;4.98;100.00
59103;BME280;43999;51.660;5.616;2023-02-16T07:46:53;102087.72;;;5.05;100.00
59103;BME280;43999;51.660;5.616;2023-02-16T07:49:22;102083.28;;;5.13;100.00
59103;BME280;43999;51.660;5.616;2023-02-16T07:51:51;102096.28;;;5.15;100.00
59103;BME280;43999;51.660;5.616;2023-02-16T07:54:32;102097.09;;;5.17;100.00
59103;BME280;43999;51.660;5.616;2023-02-16T07:57:05;102106.56;;;5.23;100.00
59103;BME280;43999;51.660;5.616;2023-02-16T07:59:35;102109.97;;;5.28;100.00
59103;BME280;43999;51.660;5.616;2023-02-16T08:02:05;102112.56;;;5.29;100.00
59103;BME280;43999;51.660;5.616;2023-02-16T08:04:37;102115.97;;;5.33;100.00
59103;BME280;43999;51.660;5.616;2023-02-16T08:07:06;102107.25;;;5.38;100.00
59103;BME280;43999;51.660;5.616;2023-02-16T08:09:34;102105.44;;;5.44;100.00
59103;BME280;43999;51.660;5.616;2023-02-16T08:12:06;102103.69;;;5.49;100.00
59103;BME280;43999;51.660;5.616;2023-02-16T08:14:37;102104.44;;;5.55;100.00
59103;BME280;43999;51.660;5.616;2023-02-16T08:17:08;102101.78;;;5.62;100.00
59103;BME280;43999;51.660;5.616;2023-02-16T08:19:35;102106.09;;;5.63;100.00
59103;BME280;43999;51.660;5.616;2023-02-16T08:22:04;102106.94;;;5.65;100.00
59103;BME280;43999;51.660;5.616;2023-02-16T08:24:35;102121.59;;;5.72;100.00
59103;BME280;43999;51.660;5.616;2023-02-16T08:27:04;102123.25;;;5.76;100.00
59103;BME280;43999;51.660;5.616;2023-02-16T08:29:39;102131.00;;;5.81;100.00
59103;BME280;43999;51.660;5.616;2023-02-16T08:32:13;102125.69;;;5.88;100.00
59103;BME280;43999;51.660;5.616;2023-02-16T08:34:42;102134.31;;;5.93;100.00
59103;BME280;43999;51.660;5.616;2023-02-16T08:37:12;102132.53;;;5.99;100.00
59103;BME280;43999;51.660;5.616;2023-02-16T08:39:43;102129.88;;;6.02;100.00
59103;BME280;43999;51.660;5.616;2023-02-16T08:42:11;102129.84;;;6.05;100.00
59103;BME280;43999;51.660;5.616;2023-02-16T08:44:42;102128.91;;;6.10;100.00
59103;BME280;43999;51.660;5.616;2023-02-16T08:47:12;102129.72;;;6.13;100.00
59103;BME280;43999;51.660;5.616;2023-02-16T08:49:42;102136.63;;;6.17;100.00
59103;BME280;43999;51.660;5.616;2023-02-16T08:52:12;102134.84;;;6.19;100.00
59103;BME280;43999;51.660;5.616;2023-02-16T08:54:42;102134.78;;;6.22;100.00
59103;BME280;43999;51.660;5.616;2023-02-16T08:57:12;102139.97;;;6.25;100.00
59103;BME280;43999;51.660;5.616;2023-02-16T08:59:42;102141.66;;;6.29;100.00
59103;BME280;43999;51.660;5.616;2023-02-16T09:02:16;102138.13;;;6.30;100.00
59103;BME280;43999;51.660;5.616;2023-02-16T09:04:46;102139.00;;;6.32;100.00
59103;BME280;43999;51.660;5.616;2023-02-16T09:07:19;102145.81;;;6.38;100.00
59103;BME280;43999;51.660;5.616;2023-02-16T09:09:52;102151.91;;;6.40;100.00
59103;BME280;43999;51.660;5.616;2023-02-16T09:12:25;102149.25;;;6.41;100.00
59103;BME280;43999;51.660;5.616;2023-02-16T09:14:57;102149.25;;;6.43;100.00
59103;BME280;43999;51.660;5.616;2023-02-16T09:17:27;102158.69;;;6.49;100.00
59103;BME280;43999;51.660;5.616;2023-02-16T09:19:55;102152.56;;;6.53;100.00
59103;BME280;43999;51.660;5.616;2023-02-16T09:22:22;102155.09;;;6.57;100.00
59103;BME280;43999;51.660;5.616;2023-02-16T09:24:50;102158.50;;;6.61;100.00
59103;BME280;43999;51.660;5.616;2023-02-16T09:27:22;102152.41;;;6.62;100.00
59103;BME280;43999;51.660;5.616;2023-02-16T09:29:54;102149.75;;;6.65;100.00
59103;BME280;43999;51.660;5.616;2023-02-16T09:32:26;102153.13;;;6.70;100.00
59103;BME280;43999;51.660;5.616;2023-02-16T09:34:55;102156.53;;;6.74;100.00
59103;BME280;43999;51.660;5.616;2023-02-16T09:37:32;102151.28;;;6.77;100.00
59103;BME280;43999;51.660;5.616;2023-02-16T09:40:04;102153.00;;;6.78;100.00
59103;BME280;43999;51.660;5.616;2023-02-16T09:43:18;102148.63;;;6.78;100.00
59103;BME280;43999;51.660;5.616;2023-02-16T09:46:12;102152.06;;;6.82;100.00
59103;BME280;43999;51.660;5.616;2023-02-16T09:48:47;102143.38;;;6.81;100.00
59103;BME280;43999;51.660;5.616;2023-02-16T09:51:38;102147.00;;;6.74;100.00
59103;BME280;43999;51.660;5.616;2023-02-16T09:54:57;102140.22;;;6.64;100.00
59103;BME280;43999;51.660;5.616;2023-02-16T10:00:56;102140.44;;;6.50;100.00
59103;BME280;43999;51.660;5.616;2023-02-16T10:04:23;102136.19;;;6.44;100.00
59103;BME280;43999;51.660;5.616;2023-02-16T10:06:59;102131.06;;;6.40;100.00
59103;BME280;43999;51.660;5.616;2023-02-16T10:09:54;102126.81;;;6.34;100.00
59103;BME280;43999;51.660;5.616;2023-02-16T10:12:45;102130.31;;;6.30;100.00
59103;BME280;43999;51.660;5.616;2023-02-16T10:15:27;102143.38;;;6.28;100.00
59103;BME280;43999;51.660;5.616;2023-02-16T10:18:35;102139.09;;;6.26;100.00
59103;BME280;43999;51.660;5.616;2023-02-16T10:21:28;102152.09;;;6.26;100.00
59103;BME280;43999;51.660;5.616;2023-02-16T10:24:04;102140.84;;;6.22;100.00
59103;BME280;43999;51.660;5.616;2023-02-16T10:27:13;102149.53;;;6.24;100.00
59103;BME280;43999;51.660;5.616;2023-02-16T10:29:55;102146.91;;;6.24;100.00
59103;BME280;43999;51.660;5.616;2023-02-16T10:33:13;102151.19;;;6.27;100.00
59103;BME280;43999;51.660;5.616;2023-02-16T10:36:00;102143.38;;;6.28;100.00
59103;BME280;43999;51.660;5.616;2023-02-16T10:43:43;102148.41;;;6.39;100.00
59103;BME280;43999;51.660;5.616;2023-02-16T10:47:40;102153.56;;;6.42;100.00
59103;BME280;43999;51.660;5.616;2023-02-16T10:50:56;102145.75;;;6.42;100.00
59103;BME280;43999;51.660;5.616;2023-02-16T10:54:24;102149.25;;;6.41;100.00
59103;BME280;43999;51.660;5.616;2023-02-16T10:57:26;102151.00;;;6.41;100.00
59103;BME280;43999;51.660;5.616;2023-02-16T11:00:18;102149.31;;;6.38;100.00
59103;BME280;43999;51.660;5.616;2023-02-16T11:03:24;102140.66;;;6.35;100.00
59103;BME280;43999;51.660;5.616;2023-02-16T11:06:22;102143.34;;;6.30;100.00
59103;BME280;43999;51.660;5.616;2023-02-16T11:09:27;102147.72;;;6.28;100.00
59103;BME280;43999;51.660;5.616;2023-02-16T11:12:39;102149.50;;;6.26;100.00
59103;BME280;43999;51.660;5.616;2023-02-16T11:15:40;102155.63;;;6.22;100.00
59103;BME280;43999;51.660;5.616;2023-02-16T11:18:58;102160.88;;;6.19;100.00
59103;BME280;43999;51.660;5.616;2023-02-16T11:21:56;102147.91;;;6.16;100.00
59103;BME280;43999;51.660;5.616;2023-02-16T11:24:50;102140.97;;;6.15;100.00
59103;BME280;43999;51.660;5.616;2023-02-16T11:27:33;102140.09;;;6.16;100.00
59103;BME280;43999;51.660;5.616;2023-02-16T11:30:41;102129.69;;;6.16;100.00
59103;BME280;43999;51.660;5.616;2023-02-16T11:33:23;102123.59;;;6.17;100.00
59103;BME280;43999;51.660;5.616;2023-02-16T11:36:36;102119.13;;;6.25;100.00
59103;BME280;43999;51.660;5.616;2023-02-16T11:39:26;102130.31;;;6.32;100.00
59103;BME280;43999;51.660;5.616;2023-02-16T11:45:34;102116.41;;;6.33;100.00
59103;BME280;43999;51.660;5.616;2023-02-16T11:48:12;102119.78;;;6.39;100.00
59103;BME280;43999;51.660;5.616;2023-02-16T11:51:06;102104.97;;;6.44;100.00
59103;BME280;43999;51.660;5.616;2023-02-16T11:54:04;102108.25;;;6.54;100.00
59103;BME280;43999;51.660;5.616;2023-02-16T11:57:07;102104.63;;;6.63;100.00
59103;BME280;43999;51.660;5.616;2023-02-16T12:00:22;102089.75;;;6.71;100.00
59103;BME280;43999;51.660;5.616;2023-02-16T12:03:29;102096.47;;;6.81;100.00
59103;BME280;43999;51.660;5.616;2023-02-16T12:07:21;102089.41;;;6.90;100.00
59103;BME280;43999;51.660;5.616;2023-02-16T12:10:18;102077.09;;;6.98;100.00
59103;BME280;43999;51.660;5.616;2023-02-16T12:13:53;102079.44;;;7.12;100.00
59103;BME280;43999;51.660;5.616;2023-02-16T12:20:32;102085.13;;;7.31;100.00
59103;BME280;43999;51.660;5.616;2023-02-16T12:23:40;102072.78;;;7.41;100.00
59103;BME280;43999;51.660;5.616;2023-02-16T12:27:01;102060.31;;;7.53;100.00
59103;BME280;43999;51.660;5.616;2023-02-16T12:38:04;102061.34;;;8.23;100.00
59103;BME280;43999;51.660;5.616;2023-02-16T12:46:48;102052.69;;;8.57;100.00
59103;BME280;43999;51.660;5.616;2023-02-16T12:52:42;102035.91;;;8.99;100.00
59103;BME280;43999;51.660;5.616;2023-02-16T12:55:46;102020.63;;;9.14;100.00
59103;BME280;43999;51.660;5.616;2023-02-16T12:58:44;102012.34;;;9.30;100.00
59103;BME280;43999;51.660;5.616;2023-02-16T13:01:56;102019.81;;;9.71;100.00
59103;BME280;43999;51.660;5.616;2023-02-16T13:12:46;101994.16;;;10.84;100.00
59103;BME280;43999;51.660;5.616;2023-02-16T13:16:26;101996.97;;;10.80;100.00
59103;BME280;43999;51.660;5.616;2023-02-16T13:19:12;101992.75;;;10.75;100.00
59103;BME280;43999;51.660;5.616;2023-02-16T13:22:36;101971.13;;;10.69;100.00
59103;BME280;43999;51.660;5.616;2023-02-16T13:45:48;101946.19;;;11.72;100.00
59103;BME280;43999;51.660;5.616;2023-02-16T13:48:31;101963.78;;;11.70;100.00
59103;BME280;43999;51.660;5.616;2023-02-16T13:51:23;101955.19;;;11.66;100.00
59103;BME280;43999;51.660;5.616;2023-02-16T13:54:01;101937.78;;;11.64;100.00
59103;BME280;43999;51.660;5.616;2023-02-16T13:56:36;101941.56;;;11.57;100.00
59103;BME280;43999;51.660;5.616;2023-02-16T14:01:55;101939.50;;;11.43;100.00
59103;BME280;43999;51.660;5.616;2023-02-16T14:07:36;101921.31;;;11.38;100.00
59103;BME280;43999;51.660;5.616;2023-02-16T14:10:12;101913.63;;;11.56;100.00
59103;BME280;43999;51.660;5.616;2023-02-16T14:12:46;101926.63;;;11.59;100.00
59103;BME280;43999;51.660;5.616;2023-02-16T14:15:18;101909.81;;;11.63;100.00
59103;BME280;43999;51.660;5.616;2023-02-16T14:17:48;101908.78;;;11.67;100.00
59103;BME280;43999;51.660;5.616;2023-02-16T14:20:40;101901.81;;;11.66;100.00
59103;BME280;43999;51.660;5.616;2023-02-16T14:23:27;101895.31;;;11.54;100.00
59103;BME280;43999;51.660;5.616;2023-02-16T14:26:07;101910.13;;;11.55;100.00
59103;BME280;43999;51.660;5.616;2023-02-16T14:29:05;101902.81;;;11.63;100.00
59103;BME280;43999;51.660;5.616;2023-02-16T14:35:25;101894.22;;;11.80;100.00
59103;BME280;43999;51.660;5.616;2023-02-16T14:38:46;101897.03;;;11.76;100.00
59103;BME280;43999;51.660;5.616;2023-02-16T14:41:35;101896.44;;;11.69;100.00
59103;BME280;43999;51.660;5.616;2023-02-16T14:44:32;101891.56;;;11.60;100.00
59103;BME280;43999;51.660;5.616;2023-02-16T14:47:54;101883.69;;;11.60;100.00
59103;BME280;43999;51.660;5.616;2023-02-16T15:01:19;101879.88;;;11.24;100.00
59103;BME280;43999;51.660;5.616;2023-02-16T15:03:52;101880.81;;;11.23;100.00
59103;BME280;43999;51.660;5.616;2023-02-16T15:06:36;101881.34;;;11.32;100.00
59103;BME280;43999;51.660;5.616;2023-02-16T15:09:34;101874.13;;;11.59;100.00
59103;BME280;43999;51.660;5.616;2023-02-16T15:12:14;101878.28;;;11.85;100.00
59103;BME280;43999;51.660;5.616;2023-02-16T15:15:07;101872.84;;;12.10;100.00
59103;BME280;43999;51.660;5.616;2023-02-16T15:17:47;101870.19;;;12.31;100.00
59103;BME280;43999;51.660;5.616;2023-02-16T15:20:36;101871.34;;;12.24;100.00
59103;BME280;43999;51.660;5.616;2023-02-16T15:23:25;101864.00;;;12.11;100.00
59103;BME280;43999;51.660;5.616;2023-02-16T15:26:15;101864.56;;;11.99;100.00
59103;BME280;43999;51.660;5.616;2023-02-16T15:29:24;101870.22;;;11.88;100.00
59103;BME280;43999;51.660;5.616;2023-02-16T15:31:57;101868.28;;;11.73;100.00
59103;BME280;43999;51.660;5.616;2023-02-16T15:34:34;101868.56;;;11.66;100.00
59103;BME280;43999;51.660;5.616;2023-02-16T15:37:23;101868.94;;;11.57;100.00
59103;BME280;43999;51.660;5.616;2023-02-16T15:40:27;101872.53;;;11.55;100.00
59103;BME280;43999;51.660;5.616;2023-02-16T15:43:31;101849.94;;;11.51;100.00
59103;BME280;43999;51.660;5.616;2023-02-16T15:46:21;101861.38;;;11.50;100.00
59103;BME280;43999;51.660;5.616;2023-02-16T15:49:28;101866.81;;;11.45;100.00
59103;BME280;43999;51.660;5.616;2023-02-16T15:52:34;101862.66;;;11.39;100.00
59103;BME280;43999;51.660;5.616;2023-02-16T15:55:11;101861.06;;;11.35;100.00
59103;BME280;43999;51.660;5.616;2023-02-16T15:57:40;101869.06;;;11.32;100.00
59103;BME280;43999;51.660;5.616;2023-02-16T16:00:20;101858.69;;;11.29;100.00
59103;BME280;43999;51.660;5.616;2023-02-16T16:02:56;101853.63;;;11.24;100.00